Time;durP1;ratioP1;P1;durP2;ratioP2;P2;SDS_P1;SDS_P2;PMS_P1;PMS_P2;Temp;Humidity;BMP_temperature;BMP_pressure;BME280_temperature;BME280_humidity;BME280_pressure;Samples;Min_cycle;Max_cycle;Signal;HPM_P1;HPM_P2
2023/10/13 00:01:20;;;;;;;220.68;72.28;;;15.90;99.90;;;;;;4826061;29;20056;-77
2023/10/13 00:03:46;;;;;;;203.82;69.88;;;15.90;99.90;;;;;;4826230;29;20046;-77
2023/10/13 00:06:12;;;;;;;200.55;67.88;;;16.00;99.90;;;;;;4824889;29;20081;-76
2023/10/13 00:08:39;;;;;;;159.82;63.67;;;16.00;99.90;;;;;;4826009;29;20528;-76
2023/10/13 00:11:05;;;;;;;161.80;64.60;;;16.00;99.90;;;;;;4826164;29;20062;-76
2023/10/13 00:13:52;;;;;;;222.45;71.68;;;16.00;99.90;;;;;;4825831;29;20129;-76
2023/10/13 00:16:21;;;;;;;210.98;69.82;;;16.00;99.90;;;;;;4828301;29;20050;-76
2023/10/13 00:18:48;;;;;;;133.15;57.35;;;16.00;99.90;;;;;;4811315;29;20046;-76
2023/10/13 00:21:35;;;;;;;168.85;65.90;;;16.00;99.90;;;;;;4841431;29;20136;-76
2023/10/13 00:24:01;;;;;;;168.88;64.53;;;16.00;99.90;;;;;;4841354;29;20132;-76
2023/10/13 00:26:30;;;;;;;234.75;69.75;;;16.00;99.90;;;;;;4818283;29;20046;-76
2023/10/13 00:29:01;;;;;;;179.75;65.57;;;16.00;99.90;;;;;;4824798;29;20435;-76
2023/10/13 00:31:33;;;;;;;111.15;58.33;;;16.00;99.90;;;;;;4831564;29;20045;-76
2023/10/13 00:34:09;;;;;;;196.63;67.65;;;16.00;99.90;;;;;;4833095;29;20569;-76
2023/10/13 00:36:35;;;;;;;177.05;64.90;;;16.00;99.90;;;;;;4833126;29;20505;-76
2023/10/13 00:39:01;;;;;;;108.03;56.97;;;16.00;99.90;;;;;;4826879;29;20505;-76
2023/10/13 00:41:51;;;;;;;202.30;67.32;;;16.00;99.90;;;;;;4832013;29;20097;-76
2023/10/13 00:44:17;;;;;;;172.68;66.70;;;16.10;99.90;;;;;;4840619;29;20050;-76
2023/10/13 00:46:45;;;;;;;241.25;71.88;;;16.10;99.90;;;;;;4830719;29;20133;-76
2023/10/13 00:49:15;;;;;;;267.27;75.25;;;16.10;99.90;;;;;;4824979;29;20076;-76
2023/10/13 00:51:47;;;;;;;350.70;78.95;;;16.10;99.90;;;;;;4824877;29;20393;-76
2023/10/13 00:54:13;;;;;;;289.77;75.70;;;16.10;99.90;;;;;;4838467;29;20110;-77
2023/10/13 00:56:48;;;;;;;267.98;71.40;;;16.10;99.90;;;;;;4825919;29;20045;-77
2023/10/13 00:59:16;;;;;;;271.30;76.82;;;16.10;99.90;;;;;;4824497;29;20421;-76
2023/10/13 01:01:42;;;;;;;262.98;77.68;;;16.10;99.90;;;;;;4807084;29;20075;-76
2023/10/13 01:04:11;;;;;;;434.10;83.10;;;16.10;99.90;;;;;;4791947;29;20054;-77
2023/10/13 01:06:38;;;;;;;231.60;71.07;;;16.10;99.90;;;;;;4818813;29;20038;-78
2023/10/13 01:09:16;;;;;;;151.13;63.03;;;16.10;99.90;;;;;;4823885;29;20052;-78
2023/10/13 01:11:44;;;;;;;190.45;70.78;;;16.10;99.90;;;;;;4828154;29;20033;-78
2023/10/13 01:14:11;;;;;;;280.80;74.00;;;16.10;99.90;;;;;;4843371;29;20041;-78
2023/10/13 01:16:43;;;;;;;227.52;70.35;;;16.10;99.90;;;;;;4830236;29;20501;-78
2023/10/13 01:19:12;;;;;;;152.23;63.55;;;16.10;99.90;;;;;;4808975;29;20076;-77
2023/10/13 01:21:40;;;;;;;322.83;73.88;;;16.10;99.90;;;;;;4831886;29;20148;-77
2023/10/13 01:24:07;;;;;;;166.45;64.78;;;16.10;99.90;;;;;;4807992;29;20053;-77
2023/10/13 01:26:38;;;;;;;232.50;66.50;;;16.10;99.90;;;;;;4824440;29;20052;-77
2023/10/13 01:29:12;;;;;;;112.15;55.33;;;16.10;99.90;;;;;;4817211;29;20500;-77
2023/10/13 01:31:47;;;;;;;176.07;63.35;;;16.10;99.90;;;;;;4829164;29;20712;-77
2023/10/13 01:34:14;;;;;;;130.80;59.83;;;16.10;99.90;;;;;;4817018;29;20133;-77
2023/10/13 01:36:40;;;;;;;154.15;63.08;;;16.10;99.90;;;;;;4819267;29;20045;-77
2023/10/13 01:39:10;;;;;;;191.65;66.68;;;16.10;99.90;;;;;;4832347;29;20106;-77
2023/10/13 01:41:39;;;;;;;214.40;67.30;;;16.10;99.90;;;;;;4831505;29;20060;-77
2023/10/13 01:44:04;;;;;;;115.78;56.78;;;16.10;99.90;;;;;;4837519;29;20045;-77
2023/10/13 01:46:30;;;;;;;158.02;60.05;;;16.10;99.90;;;;;;4834468;29;20117;-77
2023/10/13 01:48:57;;;;;;;242.77;71.95;;;16.10;99.90;;;;;;4824907;29;20132;-77
2023/10/13 01:51:23;;;;;;;101.07;54.00;;;16.10;99.90;;;;;;4825269;29;20485;-77
2023/10/13 01:53:56;;;;;;;228.73;66.05;;;16.10;99.90;;;;;;4824606;29;20077;-77
2023/10/13 01:56:23;;;;;;;;;;;16.10;99.90;;;;;;4824380;29;20046;-77
2023/10/13 01:58:48;;;;;;;245.48;68.07;;;16.10;99.90;;;;;;4825228;29;19927;-77
2023/10/13 02:01:26;;;;;;;340.23;73.53;;;16.10;99.90;;;;;;4825028;29;20038;-77
2023/10/13 02:04:03;;;;;;;208.68;62.95;;;16.10;99.90;;;;;;4837773;29;20124;-77
2023/10/13 02:06:33;;;;;;;138.93;56.55;;;16.10;99.90;;;;;;4823094;29;20125;-77
2023/10/13 02:09:05;;;;;;;213.70;66.25;;;16.00;99.90;;;;;;4824732;29;20133;-77
2023/10/13 02:11:30;;;;;;;203.32;60.47;;;16.10;99.90;;;;;;4828199;29;20128;-77
2023/10/13 02:13:57;;;;;;;200.10;60.90;;;16.10;99.90;;;;;;4838676;29;20129;-77
2023/10/13 02:16:25;;;;;;;208.75;62.03;;;16.10;99.90;;;;;;4831048;29;20071;-77
2023/10/13 02:18:53;;;;;;;83.68;49.28;;;16.10;99.90;;;;;;4835451;29;20132;-77
2023/10/13 02:21:19;;;;;;;114.43;52.38;;;16.10;99.90;;;;;;4819818;29;20045;-77
2023/10/13 02:23:59;;;;;;;150.23;55.30;;;16.10;99.90;;;;;;4838824;29;20520;-77
2023/10/13 02:26:31;;;;;;;130.32;50.25;;;16.10;99.90;;;;;;4800052;29;20033;-77
2023/10/13 02:29:07;;;;;;;191.05;57.88;;;16.00;99.90;;;;;;4835402;29;20042;-77
2023/10/13 02:31:35;;;;;;;98.60;46.88;;;16.10;99.90;;;;;;4811676;29;20374;-77
2023/10/13 02:34:06;;;;;;;117.78;48.45;;;16.00;99.90;;;;;;4823456;29;20042;-77
2023/10/13 02:36:36;;;;;;;161.65;54.40;;;16.00;99.90;;;;;;4819839;29;20433;-77
2023/10/13 02:39:08;;;;;;;201.60;54.75;;;16.10;99.90;;;;;;4830269;29;20054;-77
2023/10/13 02:41:37;;;;;;;134.52;50.47;;;16.10;99.90;;;;;;4843016;29;20048;-77
2023/10/13 02:44:06;;;;;;;85.30;45.53;;;16.10;99.90;;;;;;4842865;29;20105;-77
2023/10/13 02:46:35;;;;;;;200.07;55.35;;;16.00;99.90;;;;;;4836727;29;20046;-77
2023/10/13 02:49:09;;;;;;;101.45;46.90;;;16.00;99.90;;;;;;4826623;29;20045;-78
2023/10/13 02:51:39;;;;;;;104.40;46.97;;;16.10;99.90;;;;;;4827488;29;20045;-77
2023/10/13 02:54:11;;;;;;;144.90;49.90;;;16.00;99.90;;;;;;4827276;29;20038;-77
2023/10/13 02:56:49;;;;;;;141.43;48.55;;;16.00;99.90;;;;;;4826558;29;20049;-77
2023/10/13 02:59:15;;;;;;;166.88;48.78;;;16.00;99.90;;;;;;4834832;29;20049;-77
2023/10/13 03:01:40;;;;;;;132.60;47.25;;;16.00;99.90;;;;;;4825665;29;20114;-78
2023/10/13 03:04:08;;;;;;;143.40;47.95;;;16.00;99.90;;;;;;4832814;29;20046;-77
2023/10/13 03:06:35;;;;;;;95.78;43.90;;;16.00;99.90;;;;;;4829610;29;20121;-78
2023/10/13 03:09:19;;;;;;;102.75;45.55;;;16.00;99.90;;;;;;4824811;29;20506;-78
2023/10/13 03:11:49;;;;;;;93.00;44.35;;;16.00;99.90;;;;;;4816980;29;20041;-78
2023/10/13 03:14:26;;;;;;;198.50;53.88;;;16.00;99.90;;;;;;4837134;29;20041;-78
2023/10/13 03:17:08;;;;;;;116.35;49.25;;;16.10;99.90;;;;;;4835326;29;20045;-78
2023/10/13 03:19:36;;;;;;;85.53;45.65;;;16.00;99.90;;;;;;4819470;29;20045;-78
2023/10/13 03:22:11;;;;;;;195.38;54.38;;;16.10;99.90;;;;;;4826926;29;20457;-78
2023/10/13 03:24:46;;;;;;;124.15;49.53;;;16.00;99.90;;;;;;4811648;29;20548;-78
2023/10/13 03:27:23;;;;;;;139.55;51.35;;;16.00;99.90;;;;;;4824711;29;20525;-78
2023/10/13 03:29:54;;;;;;;177.07;54.45;;;16.00;99.90;;;;;;4831070;29;20109;-78
2023/10/13 03:32:20;;;;;;;217.35;57.78;;;16.00;99.90;;;;;;4830295;29;20045;-78
2023/10/13 03:35:13;;;;;;;200.80;58.03;;;16.00;99.90;;;;;;4844981;29;20048;-78
2023/10/13 03:37:38;;;;;;;102.95;50.88;;;16.00;99.90;;;;;;4830685;29;20110;-78
2023/10/13 03:40:33;;;;;;;246.02;58.28;;;16.00;99.90;;;;;;4830346;29;20363;-78
2023/10/13 03:43:11;;;;;;;173.82;57.00;;;16.00;99.90;;;;;;4837217;29;20537;-78
2023/10/13 03:45:42;;;;;;;89.82;48.67;;;16.00;99.90;;;;;;4844686;29;20049;-77
2023/10/13 03:48:27;;;;;;;295.85;67.30;;;16.00;99.90;;;;;;4829365;29;20412;-77
2023/10/13 03:51:03;;;;;;;149.77;54.13;;;16.00;99.90;;;;;;4828388;29;20125;-78
2023/10/13 03:53:33;;;;;;;147.63;53.25;;;16.00;99.90;;;;;;4835867;29;20445;-78
2023/10/13 03:56:08;;;;;;;160.75;56.60;;;16.00;99.90;;;;;;4809538;29;20042;-78
2023/10/13 03:58:45;;;;;;;176.30;56.03;;;16.00;99.90;;;;;;4818824;29;20077;-78
2023/10/13 04:01:14;;;;;;;235.15;60.63;;;16.00;99.90;;;;;;4842744;29;20398;-78
2023/10/13 04:03:56;;;;;;;169.07;57.05;;;16.00;99.90;;;;;;4842133;29;20276;-78
2023/10/13 04:15:18;;;;;;;217.45;58.17;;;16.00;99.90;;;;;;4830046;29;20045;-79
2023/10/13 04:17:22;;;;;;;260.95;62.22;;;15.90;99.90;;;;;;4818990;29;20132;-78
2023/10/13 04:20:32;;;;;;;212.95;59.72;;;15.90;99.90;;;;;;4828781;29;20049;-78
2023/10/13 04:36:22;;;;;;;182.13;57.03;;;15.90;99.90;;;;;;4817951;29;20053;-79
2023/10/13 04:38:56;;;;;;;223.38;61.95;;;15.90;99.90;;;;;;4829564;29;20109;-78
2023/10/13 04:41:31;;;;;;;172.85;56.85;;;15.90;99.90;;;;;;4827225;29;20062;-79
2023/10/13 05:00:55;;;;;;;117.63;45.95;;;15.80;99.90;;;;;;4823927;29;20125;-77
2023/10/13 05:46:48;;;;;;;72.18;33.40;;;15.80;99.90;;;;;;4830653;29;20054;-78
2023/10/13 05:52:07;;;;;;;45.25;28.52;;;15.70;99.90;;;;;;4822580;29;20111;-78
2023/10/13 06:30:17;;;;;;;73.03;27.90;;;15.70;99.90;;;;;;4824246;29;20046;-77
2023/10/13 06:32:46;;;;;;;28.15;20.50;;;15.70;99.90;;;;;;4816475;29;20042;-77
2023/10/13 06:35:23;;;;;;;37.50;22.77;;;15.80;99.90;;;;;;4824757;29;20049;-78
2023/10/13 06:37:50;;;;;;;38.88;22.58;;;15.80;99.90;;;;;;4829565;29;20085;-78
2023/10/13 06:40:25;;;;;;;59.42;26.90;;;15.80;99.90;;;;;;4826815;29;20573;-77
2023/10/13 06:42:53;;;;;;;64.20;27.92;;;15.90;99.90;;;;;;4824324;29;20573;-77
2023/10/13 06:45:19;;;;;;;64.22;27.83;;;15.90;99.90;;;;;;4808788;29;20102;-77
2023/10/13 06:47:44;;;;;;;48.65;23.63;;;15.90;99.90;;;;;;4824490;29;20042;-77
2023/10/13 06:50:15;;;;;;;35.53;20.25;;;15.90;99.90;;;;;;4820436;29;20577;-78
2023/10/13 06:52:44;;;;;;;45.03;22.20;;;15.90;99.90;;;;;;4830366;29;20050;-77
2023/10/13 06:55:16;;;;;;;57.50;24.15;;;16.00;99.90;;;;;;4845703;29;20087;-77
2023/10/13 06:57:44;;;;;;;69.18;27.65;;;16.00;99.90;;;;;;4830521;29;20079;-78
2023/10/13 07:00:19;;;;;;;42.35;23.08;;;16.00;99.90;;;;;;4829589;29;20053;-77
2023/10/13 07:02:51;;;;;;;59.83;25.40;;;16.00;99.90;;;;;;4817448;29;20133;-77
2023/10/13 07:05:17;;;;;;;64.20;26.17;;;16.10;99.90;;;;;;4819309;29;20054;-77
2023/10/13 07:07:44;;;;;;;45.53;22.73;;;16.10;99.90;;;;;;4815754;29;20454;-77
2023/10/13 07:10:11;;;;;;;84.85;29.38;;;16.00;99.90;;;;;;4809984;29;20391;-77
2023/10/13 07:12:38;;;;;;;46.72;24.02;;;16.10;99.90;;;;;;4827143;29;20062;-77
2023/10/13 07:15:10;;;;;;;75.45;29.08;;;16.10;99.90;;;;;;4825714;29;20041;-78
2023/10/13 07:17:39;;;;;;;48.50;24.40;;;16.10;99.90;;;;;;4812570;29;20037;-77
2023/10/13 07:20:15;;;;;;;44.10;23.63;;;16.10;99.90;;;;;;4826983;29;20084;-76
2023/10/13 07:22:54;;;;;;;25.02;17.08;;;16.10;99.90;;;;;;4822184;29;20418;-77
2023/10/13 07:25:24;;;;;;;31.95;18.27;;;16.20;99.90;;;;;;4826654;29;20124;-76
2023/10/13 07:27:50;;;;;;;44.47;21.83;;;16.20;99.90;;;;;;4826918;29;20076;-77
2023/10/13 07:30:19;;;;;;;35.92;20.08;;;16.20;99.90;;;;;;4825073;29;20488;-77
2023/10/13 07:32:45;;;;;;;44.00;24.05;;;16.20;99.90;;;;;;4825553;29;20042;-76
2023/10/13 07:35:26;;;;;;;38.95;22.85;;;16.20;99.90;;;;;;4824582;29;20050;-75
2023/10/13 07:37:53;;;;;;;44.75;22.95;;;16.30;99.90;;;;;;4841321;29;20053;-76
2023/10/13 07:40:39;;;;;;;57.40;25.25;;;16.30;99.90;;;;;;4828445;29;20046;-76
2023/10/13 07:43:09;;;;;;;27.40;18.98;;;16.30;99.90;;;;;;4826999;29;20045;-77
2023/10/13 07:45:40;;;;;;;31.35;19.30;;;16.30;99.90;;;;;;4822826;29;20049;-76
2023/10/13 07:48:23;;;;;;;56.53;24.13;;;16.30;99.90;;;;;;4824633;29;20052;-76
2023/10/13 07:51:03;;;;;;;23.50;16.25;;;16.30;99.90;;;;;;4826526;29;20050;-76
2023/10/13 07:53:34;;;;;;;34.33;19.30;;;16.30;99.90;;;;;;4826636;29;20532;-76
2023/10/13 07:56:07;;;;;;;48.35;23.65;;;16.30;99.90;;;;;;4825226;29;20428;-76
2023/10/13 07:58:33;;;;;;;26.67;17.42;;;16.30;99.90;;;;;;4832024;29;20078;-76
2023/10/13 08:03:34;;;;;;;44.60;22.30;;;16.30;99.90;;;;;;4824805;29;20095;-77
2023/10/13 08:08:37;;;;;;;42.38;21.60;;;16.30;99.90;;;;;;4826733;29;20401;-80
2023/10/13 08:13:59;;;;;;;45.00;22.35;;;16.40;99.90;;;;;;4829962;29;20048;-78
2023/10/13 08:16:45;;;;;;;28.17;17.10;;;16.40;99.90;;;;;;4824716;29;20061;-77
2023/10/13 08:19:14;;;;;;;45.17;22.23;;;16.40;99.90;;;;;;4822502;29;20058;-77
2023/10/13 08:21:48;;;;;;;39.38;22.08;;;16.40;99.90;;;;;;4808217;29;20468;-77
2023/10/13 08:24:15;;;;;;;50.55;27.45;;;16.50;99.90;;;;;;4826167;29;20061;-77
2023/10/13 08:34:49;;;;;;;51.00;28.88;;;16.60;99.90;;;;;;4840683;29;20049;-77
2023/10/13 08:37:28;;;;;;;34.15;24.70;;;16.60;99.90;;;;;;4818244;29;20409;-78
2023/10/13 08:45:20;;;;;;;67.60;34.38;;;16.80;99.90;;;;;;4838138;29;20053;-79
2023/10/13 08:48:07;;;;;;;38.38;24.33;;;16.90;99.90;;;;;;4824885;29;20101;-78
2023/10/13 08:53:31;;;;;;;41.92;27.48;;;17.10;99.90;;;;;;4844278;29;20125;-78
2023/10/13 08:56:05;;;;;;;31.08;20.55;;;17.20;99.90;;;;;;4844795;29;20080;-79
2023/10/13 09:01:34;;;;;;;25.77;20.23;;;17.20;99.90;;;;;;4833313;29;20480;-78
2023/10/13 09:09:35;;;;;;;25.20;20.38;;;17.40;99.90;;;;;;4844524;29;20081;-79
2023/10/13 09:14:58;;;;;;;24.80;17.05;;;17.50;99.90;;;;;;4828528;29;20101;-79
2023/10/13 09:17:35;;;;;;;25.73;17.52;;;17.50;99.90;;;;;;4811594;29;20042;-78
2023/10/13 09:23:07;;;;;;;19.25;13.50;;;17.70;99.90;;;;;;4834396;29;20050;-78
2023/10/13 09:25:37;;;;;;;44.22;22.58;;;17.60;99.90;;;;;;4842187;29;20042;-77
2023/10/13 09:28:27;;;;;;;31.10;18.60;;;17.60;99.90;;;;;;4832867;29;20046;-78
2023/10/13 09:30:57;;;;;;;24.48;15.93;;;17.60;99.90;;;;;;4809529;29;20054;-78
2023/10/13 09:33:50;;;;;;;30.75;16.73;;;17.50;99.90;;;;;;4820503;29;20302;-79
2023/10/13 09:36:17;;;;;;;30.90;17.80;;;17.50;99.90;;;;;;4847530;29;20445;-79
2023/10/13 09:39:10;;;;;;;25.00;15.55;;;17.50;99.90;;;;;;4813512;29;20105;-80
2023/10/13 09:41:32;;;;;;;21.83;13.10;;;17.50;99.90;;;;;;4830234;29;20181;-79
2023/10/13 09:43:58;;;;;;;22.63;13.25;;;17.50;99.90;;;;;;4829174;29;20098;-82
2023/10/13 09:46:28;;;;;;;25.90;15.65;;;17.50;99.90;;;;;;4811533;29;20079;-76
2023/10/13 09:49:33;;;;;;;20.98;14.18;;;17.50;99.90;;;;;;4824604;29;20052;-80
2023/10/13 09:52:02;;;;;;;25.30;17.05;;;17.40;99.90;;;;;;4825266;29;20057;-79
2023/10/13 09:54:36;;;;;;;19.45;12.65;;;17.50;99.90;;;;;;4812500;29;20170;-79
2023/10/13 09:57:18;;;;;;;26.55;15.88;;;17.50;99.90;;;;;;4813169;29;20052;-79
2023/10/13 09:59:56;;;;;;;23.73;16.63;;;17.50;99.90;;;;;;4827762;29;20121;-81
2023/10/13 10:02:25;;;;;;;19.73;12.95;;;17.50;99.90;;;;;;4828765;29;20056;-78
2023/10/13 10:04:52;;;;;;;19.10;12.25;;;17.60;99.90;;;;;;4808705;29;20129;-80
2023/10/13 10:07:28;;;;;;;24.48;16.48;;;17.70;99.90;;;;;;4834077;29;20049;-78
2023/10/13 10:09:58;;;;;;;19.10;13.50;;;17.70;99.90;;;;;;4820798;29;20046;-79
2023/10/13 10:12:36;;;;;;;25.73;13.85;;;17.70;99.90;;;;;;4841048;29;20049;-79
2023/10/13 10:15:24;;;;;;;21.45;14.00;;;17.80;99.90;;;;;;4825584;29;20049;-80
2023/10/13 10:17:52;;;;;;;21.20;11.98;;;17.80;99.90;;;;;;4824377;29;20058;-80
2023/10/13 10:20:32;;;;;;;21.92;13.10;;;17.80;99.90;;;;;;4808572;29;20058;-77
2023/10/13 10:22:59;;;;;;;23.67;13.30;;;17.80;99.90;;;;;;4805685;29;20498;-77
2023/10/13 10:25:35;;;;;;;23.23;13.80;;;17.90;99.90;;;;;;4827058;29;20124;-79
2023/10/13 10:28:06;;;;;;;20.63;11.77;;;17.90;99.90;;;;;;4826279;29;20124;-78
2023/10/13 10:30:34;;;;;;;21.38;12.18;;;17.80;99.90;;;;;;4814711;29;20132;-78
2023/10/13 10:33:01;;;;;;;20.77;13.00;;;17.90;99.90;;;;;;4835987;29;20050;-78
2023/10/13 10:35:32;;;;;;;25.58;15.05;;;17.80;99.90;;;;;;4828031;29;20050;-78
2023/10/13 10:38:11;;;;;;;22.30;12.45;;;17.80;99.90;;;;;;4830159;29;20046;-78
2023/10/13 10:40:56;;;;;;;18.48;12.65;;;17.80;99.90;;;;;;4830424;29;20128;-78
2023/10/13 10:43:43;;;;;;;24.85;15.98;;;17.80;99.90;;;;;;4816876;29;20113;-78
2023/10/13 10:46:14;;;;;;;21.42;12.60;;;17.90;99.90;;;;;;4838357;29;20050;-78
2023/10/13 10:48:43;;;;;;;16.85;12.15;;;17.90;99.90;;;;;;4837416;29;20046;-77
2023/10/13 10:51:22;;;;;;;21.30;10.85;;;17.90;99.90;;;;;;4828956;29;20489;-79
2023/10/13 10:53:49;;;;;;;23.17;14.07;;;17.90;99.90;;;;;;4836128;29;20522;-77
2023/10/13 10:59:19;;;;;;;20.83;12.32;;;17.90;99.90;;;;;;4807102;29;20095;-78
2023/10/13 11:01:52;;;;;;;15.50;10.73;;;17.90;99.90;;;;;;4821443;29;20050;-78
2023/10/13 11:06:57;;;;;;;19.88;11.90;;;17.90;99.90;;;;;;4846584;29;20121;-77
2023/10/13 11:12:26;;;;;;;23.40;13.18;;;18.00;99.90;;;;;;4835152;29;20405;-77
2023/10/13 11:15:22;;;;;;;25.92;13.18;;;18.00;99.90;;;;;;4835132;29;20405;-77
2023/10/13 11:17:54;;;;;;;22.75;12.05;;;18.00;99.90;;;;;;4826967;29;20041;-78
2023/10/13 11:20:43;;;;;;;22.60;11.63;;;18.10;99.90;;;;;;4835389;29;20577;-79
2023/10/13 11:23:12;;;;;;;25.00;12.10;;;18.10;99.90;;;;;;4838422;29;20053;-78
2023/10/13 11:25:38;;;;;;;21.83;11.85;;;18.10;99.90;;;;;;4845365;29;20041;-78
2023/10/13 11:28:17;;;;;;;19.00;12.07;;;18.20;99.90;;;;;;4846225;29;20045;-77
2023/10/13 11:30:49;;;;;;;17.50;10.52;;;18.40;99.90;;;;;;4813024;29;20073;-78
2023/10/13 11:33:18;;;;;;;19.92;11.25;;;18.60;99.90;;;;;;4830536;29;20101;-77
2023/10/13 11:38:57;;;;;;;23.48;11.88;;;18.80;99.90;;;;;;4845351;29;20049;-77
2023/10/13 11:41:23;;;;;;;17.40;10.60;;;18.90;99.90;;;;;;4828383;29;20046;-76
2023/10/13 11:43:52;;;;;;;18.08;10.15;;;18.90;99.90;;;;;;4820162;29;20053;-77
2023/10/13 11:49:08;;;;;;;17.70;11.27;;;18.70;99.90;;;;;;4828072;29;20060;-77
2023/10/13 11:51:33;;;;;;;16.33;9.73;;;18.70;99.90;;;;;;4829822;29;20048;-77
2023/10/13 11:53:59;;;;;;;17.63;10.07;;;18.60;99.90;;;;;;4826857;29;20038;-75
2023/10/13 11:56:25;;;;;;;18.20;10.13;;;18.60;99.90;;;;;;4827868;29;20042;-77
2023/10/13 11:58:51;;;;;;;20.08;10.07;;;18.60;99.90;;;;;;4821884;29;20045;-76
2023/10/13 12:11:47;;;;;;;20.55;10.43;;;18.50;99.90;;;;;;4830262;29;20118;-77
2023/10/13 12:14:17;;;;;;;18.02;10.20;;;18.50;99.90;;;;;;4841002;29;20061;-76
2023/10/13 12:16:51;;;;;;;17.63;10.13;;;18.60;99.90;;;;;;4844304;29;20049;-75
2023/10/13 12:19:23;;;;;;;18.88;10.07;;;18.60;99.90;;;;;;4844625;29;20101;-77
2023/10/13 12:21:55;;;;;;;20.67;11.00;;;18.50;99.90;;;;;;4841032;29;20098;-76
2023/10/13 12:24:40;;;;;;;21.50;11.65;;;18.50;99.90;;;;;;4823686;29;20045;-77
2023/10/13 12:27:27;;;;;;;17.88;11.20;;;18.50;99.90;;;;;;4833522;29;20141;-76
2023/10/13 12:29:52;;;;;;;18.88;10.35;;;18.40;99.90;;;;;;4826328;29;20046;-77
2023/10/13 12:32:24;;;;;;;17.33;10.48;;;18.50;99.90;;;;;;4810978;29;20041;-77
2023/10/13 12:51:20;;;;;;;19.00;10.32;;;18.40;99.90;;;;;;4817935;29;20053;-77
2023/10/13 12:53:49;;;;;;;23.25;10.13;;;18.40;99.90;;;;;;4823104;29;20046;-77
2023/10/13 12:56:16;;;;;;;17.85;10.18;;;18.40;99.90;;;;;;4825577;29;20042;-77
2023/10/13 12:58:51;;;;;;;20.17;10.20;;;18.40;99.90;;;;;;4822151;29;20056;-77
2023/10/13 13:01:20;;;;;;;21.85;10.05;;;18.30;99.90;;;;;;4821382;29;20045;-77
2023/10/13 13:03:47;;;;;;;22.40;11.20;;;18.30;99.90;;;;;;4818321;29;20049;-77
2023/10/13 13:06:24;;;;;;;16.73;10.48;;;18.40;99.90;;;;;;4824377;29;20042;-77
2023/10/13 13:08:55;;;;;;;18.83;9.75;;;18.30;99.90;;;;;;4825353;29;20053;-76
2023/10/13 13:11:20;;;;;;;21.15;11.40;;;18.40;99.90;;;;;;4824696;29;20042;-77
2023/10/13 13:13:47;;;;;;;18.13;10.27;;;18.40;99.90;;;;;;4812278;29;20055;-77
2023/10/13 13:16:23;;;;;;;18.55;11.23;;;18.40;99.90;;;;;;4834908;29;20136;-77
2023/10/13 13:18:55;;;;;;;21.33;10.80;;;18.40;99.90;;;;;;4831668;29;20098;-76
2023/10/13 13:21:23;;;;;;;21.58;10.57;;;18.40;99.90;;;;;;4831226;29;20554;-77
2023/10/13 13:23:54;;;;;;;19.65;11.20;;;18.40;99.90;;;;;;4815728;29;20103;-77
2023/10/13 13:26:21;;;;;;;18.25;10.48;;;18.50;99.90;;;;;;4817252;29;20248;-77
2023/10/13 13:28:50;;;;;;;22.38;11.93;;;18.40;99.90;;;;;;4828602;29;20120;-77
2023/10/13 13:31:25;;;;;;;19.10;10.93;;;18.40;99.90;;;;;;4834523;29;20077;-76
2023/10/13 13:33:51;;;;;;;18.88;12.38;;;18.30;99.90;;;;;;4825140;29;20060;-76
2023/10/13 13:36:17;;;;;;;22.90;12.52;;;18.30;99.90;;;;;;4823245;29;20038;-77
2023/10/13 13:38:46;;;;;;;24.75;14.43;;;18.20;99.90;;;;;;4815817;29;20048;-78
2023/10/13 13:41:16;;;;;;;26.35;14.35;;;18.10;99.90;;;;;;4834109;29;20060;-78
2023/10/13 13:44:35;;;;;;;26.27;16.05;;;18.00;99.90;;;;;;4820447;29;20057;-79
2023/10/13 13:46:40;;;;;;;27.67;17.10;;;18.00;99.90;;;;;;4826547;29;20060;-79
2023/10/13 13:49:07;;;;;;;33.22;17.17;;;17.90;99.90;;;;;;4823712;29;20041;-78
2023/10/13 13:51:33;;;;;;;28.88;15.82;;;17.80;99.90;;;;;;4831899;29;20497;-79
2023/10/13 13:53:59;;;;;;;19.92;14.90;;;17.70;99.90;;;;;;4824967;29;20038;-78
2023/10/13 13:56:27;;;;;;;26.08;15.52;;;17.70;99.90;;;;;;4824107;29;20128;-78
2023/10/13 13:58:53;;;;;;;30.77;16.52;;;17.60;99.90;;;;;;4824298;29;20046;-78
2023/10/13 14:01:26;;;;;;;28.95;14.82;;;17.60;99.90;;;;;;4807124;29;20042;-78
2023/10/13 14:03:56;;;;;;;24.52;15.57;;;17.60;99.90;;;;;;4825966;29;20136;-78
2023/10/13 14:06:23;;;;;;;31.65;19.17;;;17.50;99.90;;;;;;4832908;29;20041;-78
2023/10/13 14:09:02;;;;;;;30.13;18.65;;;17.50;99.90;;;;;;4827319;29;20049;-78
2023/10/13 14:14:13;;;;;;;25.73;16.40;;;17.50;99.90;;;;;;4827105;29;20114;-77
2023/10/13 14:16:47;;;;;;;23.77;14.38;;;17.50;99.90;;;;;;4808182;29;20110;-77
2023/10/13 14:19:19;;;;;;;24.15;14.73;;;17.50;99.90;;;;;;4830517;29;20053;-77
2023/10/13 14:21:45;;;;;;;25.70;16.35;;;17.50;99.90;;;;;;4807860;29;20141;-77
2023/10/13 14:24:14;;;;;;;27.85;17.10;;;17.50;99.90;;;;;;4823321;29;20113;-77
2023/10/13 14:26:42;;;;;;;26.10;16.58;;;17.50;99.90;;;;;;4823172;29;20058;-77
2023/10/13 14:29:09;;;;;;;24.38;16.17;;;17.50;99.90;;;;;;4830808;29;20045;-77
2023/10/13 14:31:36;;;;;;;20.83;14.10;;;17.50;99.90;;;;;;4822258;29;20397;-77
2023/10/13 14:34:03;;;;;;;30.75;19.08;;;17.50;99.90;;;;;;4824931;29;20046;-77
2023/10/13 14:36:28;;;;;;;25.25;15.63;;;17.50;99.90;;;;;;4831674;29;20045;-77
2023/10/13 14:38:55;;;;;;;27.15;16.60;;;17.50;99.90;;;;;;4831072;29;20102;-77
2023/10/13 14:41:21;;;;;;;24.48;16.25;;;17.50;99.90;;;;;;4820184;29;20046;-78
2023/10/13 14:43:47;;;;;;;25.52;15.05;;;17.50;99.90;;;;;;4816625;29;20093;-76
2023/10/13 14:46:23;;;;;;;31.17;18.25;;;17.50;99.90;;;;;;4822366;29;20446;-76
2023/10/13 14:48:52;;;;;;;27.45;17.05;;;17.50;99.90;;;;;;4832780;29;20405;-81
2023/10/13 14:51:18;;;;;;;25.50;17.17;;;17.50;99.90;;;;;;4825231;29;20053;-77
2023/10/13 14:53:47;;;;;;;26.38;16.13;;;17.50;99.90;;;;;;4821797;29;20046;-78
2023/10/13 14:56:14;;;;;;;24.42;16.08;;;17.40;99.90;;;;;;4824370;29;20045;-77
2023/10/13 14:58:42;;;;;;;33.15;20.40;;;17.40;99.90;;;;;;4821186;29;20052;-77
2023/10/13 15:01:15;;;;;;;40.90;23.55;;;17.40;99.90;;;;;;4823714;29;20070;-78
2023/10/13 15:03:44;;;;;;;;;;;17.40;99.90;;;;;;4815902;29;20065;-79
2023/10/13 15:06:20;;;;;;;47.90;23.90;;;17.30;99.90;;;;;;4809781;29;19931;-83
2023/10/13 15:08:47;;;;;;;43.28;24.33;;;17.20;99.90;;;;;;4823343;29;20421;-79
2023/10/13 15:11:18;;;;;;;28.30;19.17;;;17.20;99.90;;;;;;4834849;29;20033;-80
2023/10/13 15:13:44;;;;;;;70.57;32.95;;;17.20;99.90;;;;;;4844867;29;20397;-79
2023/10/13 15:16:18;;;;;;;40.78;25.23;;;17.20;99.90;;;;;;4818393;29;20554;-78
2023/10/13 15:18:51;;;;;;;32.70;20.50;;;17.20;99.90;;;;;;4839637;29;20046;-78
2023/10/13 15:21:21;;;;;;;;;;;17.20;99.90;;;;;;4821389;29;20397;-79
2023/10/13 15:23:47;;;;;;;40.92;23.45;;;17.10;99.90;;;;;;4838187;29;19921;-79
2023/10/13 15:26:14;;;;;;;35.38;22.60;;;17.10;99.90;;;;;;4849731;29;20062;-79
2023/10/13 15:28:48;;;;;;;47.20;26.90;;;17.10;99.90;;;;;;4824543;29;20505;-79
2023/10/13 15:31:37;;;;;;;46.65;26.05;;;17.10;99.90;;;;;;4836219;29;20086;-80
2023/10/13 15:34:06;;;;;;;42.28;25.38;;;17.10;99.90;;;;;;4831431;29;20041;-79
2023/10/13 15:36:35;;;;;;;33.75;21.38;;;17.10;99.90;;;;;;4846843;29;20481;-80
2023/10/13 15:39:01;;;;;;;54.45;27.20;;;17.00;99.90;;;;;;4836140;29;20056;-80
2023/10/13 15:41:28;;;;;;;58.88;27.88;;;17.10;99.90;;;;;;4841689;29;20493;-79
2023/10/13 15:43:55;;;;;;;48.90;26.23;;;17.00;99.90;;;;;;4831104;29;20057;-78
2023/10/13 15:46:21;;;;;;;49.50;28.33;;;17.10;99.90;;;;;;4829374;29;20042;-79
2023/10/13 15:48:48;;;;;;;28.45;17.73;;;17.10;99.90;;;;;;4827912;29;20085;-78
2023/10/13 15:51:14;;;;;;;38.13;20.55;;;17.10;99.90;;;;;;4835019;29;20038;-79
2023/10/13 15:53:40;;;;;;;36.38;19.65;;;17.00;99.90;;;;;;4842021;29;20109;-79
2023/10/13 15:56:11;;;;;;;32.63;18.98;;;17.00;99.90;;;;;;4854195;29;20107;-81
2023/10/13 15:58:43;;;;;;;26.90;14.52;;;17.00;99.90;;;;;;4844532;29;20050;-80
2023/10/13 16:01:13;;;;;;;27.92;15.75;;;17.00;99.90;;;;;;4849855;29;20042;-79
2023/10/13 16:03:43;;;;;;;27.83;15.48;;;17.00;99.90;;;;;;4850147;29;20050;-80
2023/10/13 16:06:10;;;;;;;25.40;15.20;;;17.00;99.90;;;;;;4830851;29;20154;-80
2023/10/13 16:08:42;;;;;;;30.52;17.60;;;17.00;99.90;;;;;;4846271;29;20046;-78
2023/10/13 16:11:18;;;;;;;26.85;14.93;;;17.00;99.90;;;;;;4857878;29;20058;-80